Airfield :
LOGIN :

Register | Disclaimer

   EN    FR    IT 

 










Legend :    VFR   Marginal VFR   IFR   Intensive IFR   Very Intensive IFR
Visi :
Ceiling :
>= 8 km
>= 3000ft
5 to 8 km
1000 to 3000 ft
1500m to 5 km
500 to 1000 ft
800 to 1500m
200 to 500 ft
< 800m
< 200 ft
Symbols :   Thunderstorms  Fog  Heavy snow  Heavy precipitations  Wind > 20 kt
SIGMETs :     Misc.  Thunderstorms  Icing  Turbulence  Mountain Waves  Volcanic Ashes






- Airport Elevation : 76 ft
- IATA code : KID


ESMK - Kristianstad

CURRENT METAR :
  • 131150Z 16007KT 130V190 9999 SCT025 08/04 Q1001

EXPIRED METARs :
  • 131120Z 17009KT 9999 FEW018 SCT021 08/04 Q1001
  • 131050Z 15008KT 9999 SCT015 08/05 Q1001
  • 131020Z 17006KT CAVOK 08/05 Q1001
  • 130950Z 15006KT CAVOK 07/05 Q1002
  • 130920Z 15004KT 9000 BR NSC 06/05 Q1002

TAF TAF ESMK
Valid from the 13 at 12:00 until the 13 at 21:00 UTC


131115Z 1312/1321 16006KT 9999 SCT020



MET'MAP, your aeronautical weather chart ! - Copyright ORBIFLY December 2007 - Disclaimer

ORBIFLY MET'MAP TEAM :

Programming & Development : Alexandra Zaïnal
Concept & Development : Baudouin d'Aumeries
Co-Development & Prog : Marc-Olivier Méhu
Technical & hardware support : Manuel Goepfert

Contact : metmap@orbifly.com




SOURCES & CREDITS :

   NOAA